createdAt,value
2018-07-31T08:29:43.410Z,45.15
2018-07-31T08:32:13.194Z,45.36
2018-07-31T08:34:49.779Z,45.27
2018-07-31T08:37:19.391Z,45.59
2018-07-31T08:39:49.013Z,46.07
2018-07-31T08:42:18.633Z,46.30
2018-07-31T08:44:48.252Z,46.01
2018-07-31T08:47:17.865Z,45.48
2018-07-31T08:49:47.491Z,45.15
2018-07-31T08:52:17.319Z,45.30
2018-07-31T08:54:46.966Z,45.28
2018-07-31T08:57:16.667Z,45.17
2018-07-31T08:59:46.498Z,45.09
2018-07-31T09:02:15.788Z,44.94
2018-07-31T09:04:45.374Z,44.84
2018-07-31T09:07:15.008Z,44.95
2018-07-31T09:09:44.684Z,44.85
2018-07-31T09:12:14.326Z,44.79
2018-07-31T09:14:43.974Z,44.69
2018-07-31T09:17:13.759Z,44.90
2018-07-31T09:19:43.452Z,45.18
2018-07-31T09:22:13.145Z,45.73
2018-07-31T09:24:42.817Z,46.04
2018-07-31T09:27:12.757Z,45.85
2018-07-31T09:29:42.373Z,46.09
2018-07-31T09:32:11.981Z,46.13
2018-07-31T09:34:46.489Z,46.41
2018-07-31T09:37:16.907Z,46.24
2018-07-31T09:39:46.521Z,45.98
2018-07-31T09:42:16.173Z,46.22
2018-07-31T09:44:45.861Z,46.28
2018-07-31T09:47:15.562Z,46.35
2018-07-31T09:49:45.231Z,46.12
2018-07-31T09:52:14.830Z,45.96
2018-07-31T18:57:34.889Z,30.91
2018-07-31T19:00:05.832Z,30.84
2018-07-31T19:02:35.447Z,30.81
2018-07-31T19:05:06.538Z,30.77
2018-07-31T19:07:35.687Z,30.74
2018-07-31T19:10:04.757Z,30.73
2018-07-31T19:12:34.352Z,30.72
2018-07-31T19:15:04.078Z,30.72
2018-07-31T19:17:33.681Z,30.70
2018-07-31T19:20:03.582Z,30.68
2018-07-31T19:22:33.499Z,30.64
2018-07-31T19:25:03.867Z,30.60
2018-07-31T19:27:33.481Z,30.56
2018-07-31T19:30:03.134Z,30.51
2018-07-31T19:32:32.923Z,30.45
2018-07-31T19:35:01.468Z,30.40
2018-07-31T19:37:30.511Z,30.37
2018-07-31T19:39:59.802Z,30.37
2018-07-31T19:42:29.413Z,30.33
2018-07-31T19:44:59.021Z,30.27
2018-07-31T19:47:27.854Z,30.25
2018-07-31T19:49:57.869Z,30.23
2018-07-31T19:52:27.701Z,30.18
2018-07-31T19:54:57.372Z,30.14
2018-07-31T19:57:27.152Z,30.10
2018-07-31T19:59:56.801Z,30.03
2018-07-31T20:02:26.637Z,29.98
2018-07-31T20:04:56.242Z,29.93
2018-07-31T20:07:25.185Z,29.88
2018-07-31T20:09:54.799Z,29.79
2018-07-31T20:12:24.452Z,29.72
2018-07-31T20:14:54.114Z,29.66
2018-07-31T20:17:23.778Z,29.59
2018-07-31T20:19:53.421Z,29.52
2018-07-31T20:22:23.132Z,29.48
2018-07-31T20:24:52.935Z,29.42
2018-07-31T20:27:22.642Z,29.37
2018-07-31T20:29:52.392Z,29.35
2018-07-31T20:32:22.806Z,29.30
2018-07-31T20:34:52.540Z,29.26
2018-07-31T20:37:22.153Z,29.23
2018-07-31T20:39:51.857Z,29.20
2018-07-31T20:42:21.488Z,29.17
2018-07-31T20:44:51.183Z,29.12
2018-07-31T20:47:20.835Z,29.08
2018-07-31T20:49:50.597Z,29.01
2018-07-31T20:52:20.211Z,28.96
2018-07-31T20:54:49.813Z,28.94
2018-07-31T20:57:19.512Z,28.94
2018-07-31T20:59:49.152Z,28.93
2018-07-31T21:02:18.814Z,28.92
2018-07-31T21:04:48.447Z,28.90
2018-07-31T21:07:18.089Z,28.87
2018-07-31T21:09:48.090Z,28.82
2018-07-31T21:12:17.738Z,28.81
2018-07-31T21:14:47.406Z,28.81
2018-07-31T21:17:17.067Z,28.80
2018-07-31T21:19:46.709Z,28.78
2018-07-31T21:22:16.405Z,28.75
2018-07-31T21:24:46.037Z,28.70
2018-07-31T21:27:15.569Z,28.67
2018-07-31T21:29:45.559Z,28.64
2018-07-31T21:32:15.165Z,28.60
2018-07-31T21:34:45.000Z,28.53
2018-07-31T21:37:14.530Z,28.47
2018-07-31T21:39:44.130Z,28.37
2018-07-31T21:42:13.722Z,28.33
2018-07-31T21:44:43.318Z,28.29
2018-07-31T21:47:13.137Z,28.25
2018-07-31T21:49:42.802Z,28.25
2018-07-31T21:52:12.524Z,28.22
2018-07-31T21:54:42.165Z,28.15
2018-07-31T21:57:11.756Z,28.09
2018-07-31T21:59:41.397Z,28.04
2018-07-31T22:02:11.058Z,27.99
2018-07-31T22:04:40.663Z,27.94
2018-07-31T22:07:10.331Z,27.89
2018-07-31T22:09:43.349Z,27.87
2018-07-31T22:12:13.325Z,27.83
2018-07-31T22:14:43.412Z,27.78
2018-07-31T22:17:13.001Z,27.71
2018-07-31T22:19:42.613Z,27.66
2018-07-31T22:22:12.235Z,27.64
2018-07-31T22:24:41.893Z,27.58
2018-07-31T22:27:11.454Z,27.55
2018-07-31T22:29:41.062Z,27.53
2018-07-31T22:32:10.857Z,27.52
2018-07-31T22:34:40.427Z,27.48
2018-07-31T22:37:10.026Z,27.45
2018-07-31T22:39:39.644Z,27.41
2018-07-31T22:42:09.201Z,27.38
2018-07-31T22:44:38.822Z,27.34
2018-07-31T22:47:08.437Z,27.30
2018-07-31T22:49:38.221Z,27.26
2018-07-31T22:52:08.069Z,27.21
2018-07-31T22:54:37.677Z,27.18
2018-07-31T22:57:07.292Z,27.14
2018-07-31T22:59:36.953Z,27.11
2018-07-31T23:02:07.092Z,27.09
2018-07-31T23:04:36.953Z,27.08
2018-07-31T23:07:07.459Z,27.04
2018-07-31T23:09:37.122Z,27.04
2018-07-31T23:12:06.766Z,27.01
2018-07-31T23:14:36.367Z,27.00
2018-07-31T23:17:06.352Z,27.00
2018-07-31T23:19:35.942Z,27.00
2018-07-31T23:22:05.527Z,26.98
2018-07-31T23:24:35.160Z,26.97
2018-07-31T23:27:04.778Z,26.95
2018-07-31T23:29:34.397Z,26.94
2018-07-31T23:32:03.993Z,26.93
2018-07-31T23:34:33.638Z,26.90
2018-07-31T23:37:03.242Z,26.88
2018-07-31T23:39:32.861Z,26.86
2018-07-31T23:42:02.442Z,26.83
2018-07-31T23:44:32.143Z,26.81
2018-07-31T23:47:01.753Z,26.78
2018-07-31T23:49:31.469Z,26.76
2018-07-31T23:52:01.550Z,26.73
2018-07-31T23:54:31.286Z,26.69
2018-07-31T23:57:00.886Z,26.66
2018-07-31T23:59:30.527Z,26.64
